Time;durP1;ratioP1;P1;durP2;ratioP2;P2;SDS_P1;SDS_P2;PMS_P1;PMS_P2;Temp;Humidity;BMP_temperature;BMP_pressure;BME280_temperature;BME280_humidity;BME280_pressure;Samples;Min_cycle;Max_cycle;Signal;HPM_P1;HPM_P2
2021/03/21 00:01:36;;;;;;;9.15;6.65;;;4.50;99.90;;;;;;5013112;28;20416;-87
2021/03/21 00:04:04;;;;;;;8.60;6.85;;;4.40;99.90;;;;;;5012481;28;20406;-88
2021/03/21 00:06:32;;;;;;;10.97;8.00;;;4.40;99.90;;;;;;5021693;28;20393;-86
2021/03/21 00:08:57;;;;;;;10.40;7.75;;;4.40;99.90;;;;;;5017382;28;20497;-85
2021/03/21 00:11:29;;;;;;;9.27;7.68;;;4.50;99.90;;;;;;5020650;28;20854;-86
2021/03/21 00:13:55;;;;;;;9.07;7.85;;;4.50;99.90;;;;;;5038568;28;20409;-86
2021/03/21 00:16:24;;;;;;;10.83;8.13;;;4.50;99.90;;;;;;5020349;28;20390;-87
2021/03/21 00:18:50;;;;;;;8.77;7.43;;;4.50;99.90;;;;;;5022540;28;20393;-85
2021/03/21 00:21:16;;;;;;;9.27;7.93;;;4.50;99.90;;;;;;5020902;28;20896;-85
2021/03/21 00:23:42;;;;;;;9.98;8.77;;;4.60;99.90;;;;;;5020973;28;20459;-84
2021/03/21 00:26:10;;;;;;;11.20;8.48;;;4.60;99.90;;;;;;5023122;28;20457;-88
2021/03/21 00:28:37;;;;;;;9.57;8.57;;;4.60;99.90;;;;;;5043076;28;20464;-85
2021/03/21 00:31:05;;;;;;;10.40;8.55;;;4.60;99.90;;;;;;5031267;28;20385;-85
2021/03/21 00:33:35;;;;;;;10.30;8.75;;;4.60;99.90;;;;;;5029749;28;20410;-86
2021/03/21 00:36:01;;;;;;;10.60;9.35;;;4.70;99.90;;;;;;5012450;28;20398;-85
2021/03/21 00:38:39;;;;;;;10.82;9.73;;;4.70;99.90;;;;;;5012219;28;20419;-86
2021/03/21 00:41:08;;;;;;;10.55;9.32;;;4.60;99.90;;;;;;5011872;28;20417;-84
2021/03/21 00:43:34;;;;;;;13.17;10.17;;;4.60;99.90;;;;;;5035130;28;20420;-86
2021/03/21 00:46:00;;;;;;;12.03;9.87;;;4.50;99.90;;;;;;5022523;28;20387;-85
2021/03/21 00:48:38;;;;;;;11.38;10.00;;;4.50;99.90;;;;;;5032810;28;20436;-86
2021/03/21 00:51:05;;;;;;;12.02;10.63;;;4.40;99.90;;;;;;5020996;28;20377;-86
2021/03/21 00:53:31;;;;;;;15.15;11.32;;;4.50;99.90;;;;;;5039738;28;20435;-85
2021/03/21 00:55:56;;;;;;;13.17;11.67;;;4.50;99.90;;;;;;5020357;28;20518;-84
2021/03/21 00:58:22;;;;;;;12.83;11.43;;;4.40;99.90;;;;;;5022599;28;20391;-86
2021/03/21 01:00:51;;;;;;;14.33;12.40;;;4.30;99.90;;;;;;5019162;28;20411;-84
2021/03/21 01:03:17;;;;;;;16.25;13.23;;;4.30;99.90;;;;;;5040215;28;20377;-86
2021/03/21 01:05:51;;;;;;;16.70;14.70;;;4.40;99.90;;;;;;5020798;28;20385;-85
2021/03/21 01:08:23;;;;;;;16.73;15.00;;;4.40;99.90;;;;;;5049838;28;20463;-85
2021/03/21 01:10:52;;;;;;;16.98;15.27;;;4.30;99.90;;;;;;5035677;28;20389;-85
2021/03/21 01:13:18;;;;;;;16.85;15.15;;;4.30;99.90;;;;;;5029935;28;20770;-86
2021/03/21 01:15:44;;;;;;;17.00;15.20;;;4.30;99.90;;;;;;5030187;28;20446;-86
2021/03/21 01:18:20;;;;;;;17.47;15.13;;;4.30;99.90;;;;;;5012123;28;20374;-85
2021/03/21 01:20:46;;;;;;;18.53;15.00;;;4.30;99.90;;;;;;5030212;28;20401;-85
2021/03/21 01:23:12;;;;;;;17.23;15.40;;;4.30;99.90;;;;;;5012261;28;20378;-86
2021/03/21 01:25:38;;;;;;;18.25;16.27;;;4.30;99.90;;;;;;5012402;28;20401;-85
2021/03/21 01:28:21;;;;;;;19.65;16.92;;;4.30;99.90;;;;;;5016309;28;20966;-86
2021/03/21 01:30:47;;;;;;;19.75;17.15;;;4.30;99.90;;;;;;5016330;28;20400;-85
2021/03/21 01:33:13;;;;;;;19.27;17.23;;;4.30;99.90;;;;;;5016218;28;20405;-84
2021/03/21 01:35:38;;;;;;;19.70;17.60;;;4.30;99.90;;;;;;5033823;28;20376;-85
2021/03/21 01:38:04;;;;;;;20.47;18.27;;;4.40;99.90;;;;;;5016440;28;20373;-86
2021/03/21 01:40:30;;;;;;;23.23;19.27;;;4.30;99.90;;;;;;5016008;28;20405;-86
2021/03/21 01:42:55;;;;;;;23.17;19.80;;;4.30;99.90;;;;;;5015885;28;20393;-85
2021/03/21 01:45:43;;;;;;;21.55;19.20;;;4.30;99.90;;;;;;5015786;28;20729;-85
2021/03/21 01:48:17;;;;;;;23.83;20.67;;;4.20;99.90;;;;;;5015750;28;20401;-85
2021/03/21 01:50:48;;;;;;;24.20;21.63;;;4.20;99.90;;;;;;5016064;28;20906;-84
2021/03/21 01:53:16;;;;;;;24.30;21.70;;;4.20;99.90;;;;;;5016173;28;20488;-86
2021/03/21 01:55:42;;;;;;;24.85;22.23;;;4.20;99.90;;;;;;5032771;28;20436;-85
2021/03/21 01:58:08;;;;;;;25.17;22.47;;;4.20;99.90;;;;;;5033052;28;20409;-86
2021/03/21 02:00:37;;;;;;;26.33;23.42;;;4.20;99.90;;;;;;5033433;28;20381;-85
2021/03/21 02:03:03;;;;;;;29.33;23.40;;;4.20;99.90;;;;;;5033125;28;20374;-85
2021/03/21 02:05:29;;;;;;;25.45;22.70;;;4.10;99.90;;;;;;5015578;28;20412;-84
2021/03/21 02:08:08;;;;;;;25.07;22.40;;;4.20;99.90;;;;;;5033035;28;20740;-85
2021/03/21 02:10:46;;;;;;;28.10;23.30;;;4.20;99.90;;;;;;5015140;28;20405;-85
2021/03/21 02:13:15;;;;;;;27.60;23.13;;;4.20;99.90;;;;;;5032709;28;20443;-85
2021/03/21 02:15:51;;;;;;;28.73;23.63;;;4.10;99.90;;;;;;5015513;28;20381;-84
2021/03/21 02:18:44;;;;;;;28.65;24.65;;;4.20;99.90;;;;;;5015247;28;20407;-86
2021/03/21 02:21:23;;;;;;;28.77;24.67;;;4.10;99.90;;;;;;5033422;28;20386;-85
2021/03/21 02:24:07;;;;;;;29.75;24.85;;;4.10;99.90;;;;;;5014881;28;20795;-84
2021/03/21 02:26:55;;;;;;;30.52;25.23;;;4.10;99.90;;;;;;5014997;28;20381;-85
2021/03/21 02:29:48;;;;;;;33.30;25.33;;;4.20;99.90;;;;;;5014917;28;20417;-86
2021/03/21 02:32:34;;;;;;;26.33;23.35;;;4.20;99.90;;;;;;5032667;28;20398;-85
2021/03/21 02:35:09;;;;;;;28.50;23.98;;;4.30;99.90;;;;;;5032518;28;20940;-85
2021/03/21 02:37:56;;;;;;;30.13;25.67;;;4.20;99.90;;;;;;5032023;28;20418;-85
2021/03/21 02:40:31;;;;;;;31.30;25.88;;;4.20;99.90;;;;;;5032369;28;20488;-86
2021/03/21 02:43:24;;;;;;;30.10;26.15;;;4.20;99.90;;;;;;5032514;28;20434;-85
2021/03/21 02:45:53;;;;;;;33.33;26.83;;;4.20;99.90;;;;;;5032506;28;20385;-85
2021/03/21 02:48:29;;;;;;;31.40;27.10;;;4.10;99.90;;;;;;5032468;28;20412;-85
2021/03/21 02:51:01;;;;;;;31.47;26.80;;;4.20;99.90;;;;;;5032223;28;20555;-85
2021/03/21 02:53:38;;;;;;;31.75;26.77;;;4.20;99.90;;;;;;5014148;28;21009;-86
2021/03/21 02:56:07;;;;;;;34.92;28.02;;;4.20;99.90;;;;;;5013996;28;20488;-85
2021/03/21 02:59:10;;;;;;;30.60;24.83;;;4.20;99.90;;;;;;5014327;28;20385;-84
2021/03/21 03:01:44;;;;;;;28.48;25.05;;;4.30;99.90;;;;;;5031881;28;20384;-85
2021/03/21 03:04:15;;;;;;;27.13;24.03;;;4.40;99.90;;;;;;5014426;28;20480;-85
2021/03/21 03:06:45;;;;;;;28.10;24.60;;;4.30;99.90;;;;;;5014340;28;20392;-85
2021/03/21 03:09:19;;;;;;;29.63;24.63;;;4.30;99.90;;;;;;5014207;28;20401;-86
2021/03/21 03:12:08;;;;;;;29.38;23.77;;;4.40;99.90;;;;;;5014160;28;20405;-84
2021/03/21 03:14:37;;;;;;;26.85;22.20;;;4.30;99.90;;;;;;4994820;28;20407;-85
2021/03/21 03:17:18;;;;;;;23.25;19.63;;;4.30;99.90;;;;;;4994456;28;20410;-86
2021/03/21 03:20:12;;;;;;;19.33;17.05;;;4.40;99.90;;;;;;5012369;28;20438;-84
2021/03/21 03:22:43;;;;;;;19.98;16.75;;;4.40;99.90;;;;;;5026423;28;20381;-84
2021/03/21 03:25:30;;;;;;;17.92;16.02;;;4.50;99.90;;;;;;5031628;28;20389;-85
2021/03/21 03:28:09;;;;;;;14.80;13.30;;;4.60;99.90;;;;;;5013814;28;20397;-85
2021/03/21 03:30:43;;;;;;;13.57;12.18;;;4.60;99.90;;;;;;5031786;28;20397;-85
2021/03/21 03:33:09;;;;;;;13.10;11.40;;;4.50;99.90;;;;;;5031527;28;20409;-86
2021/03/21 03:35:36;;;;;;;11.07;9.88;;;4.60;99.90;;;;;;5014043;28;20879;-85
2021/03/21 03:38:05;;;;;;;9.70;8.60;;;4.60;99.90;;;;;;5031620;28;20891;-84
2021/03/21 03:40:30;;;;;;;9.50;8.60;;;4.70;99.90;;;;;;5031462;28;20481;-85
2021/03/21 03:43:21;;;;;;;9.63;8.73;;;4.70;99.90;;;;;;5013690;28;20468;-86
2021/03/21 03:46:18;;;;;;;9.13;8.10;;;4.80;99.90;;;;;;5031358;28;20377;-85
2021/03/21 03:49:14;;;;;;;7.95;7.15;;;4.80;99.90;;;;;;5008417;28;20381;-84
2021/03/21 03:52:11;;;;;;;7.72;7.00;;;4.80;99.90;;;;;;5013823;28;20393;-83
2021/03/21 03:54:42;;;;;;;7.15;6.45;;;4.90;99.90;;;;;;5011682;28;20392;-85
2021/03/21 03:57:15;;;;;;;6.17;5.57;;;4.90;99.90;;;;;;4993715;28;20410;-85
2021/03/21 04:00:01;;;;;;;6.25;5.75;;;4.90;99.90;;;;;;5011753;28;20766;-84
2021/03/21 04:03:04;;;;;;;6.07;5.55;;;5.00;99.90;;;;;;4996317;28;20504;-85
2021/03/21 04:05:50;;;;;;;5.63;5.13;;;5.00;99.90;;;;;;5028483;28;20382;-85
2021/03/21 04:08:22;;;;;;;6.25;5.18;;;5.00;99.90;;;;;;5031037;28;20386;-85
2021/03/21 04:10:55;;;;;;;5.72;4.95;;;5.00;99.90;;;;;;5030496;28;20405;-86
2021/03/21 04:13:35;;;;;;;5.20;4.70;;;5.10;99.90;;;;;;5030772;28;20467;-84
2021/03/21 04:16:00;;;;;;;5.87;4.90;;;5.20;99.90;;;;;;5013527;28;20389;-84
2021/03/21 04:18:47;;;;;;;5.20;4.70;;;5.20;99.90;;;;;;5013133;28;21221;-84
2021/03/21 04:21:21;;;;;;;5.87;4.77;;;5.20;99.90;;;;;;5013133;28;20403;-86
2021/03/21 04:24:02;;;;;;;5.63;5.13;;;5.10;99.90;;;;;;4993489;28;20387;-84
2021/03/21 04:26:50;;;;;;;8.57;5.53;;;5.10;99.90;;;;;;5010773;28;20429;-85
2021/03/21 04:29:27;;;;;;;6.07;5.47;;;5.10;99.90;;;;;;5004195;28;20781;-85
2021/03/21 04:31:57;;;;;;;6.38;5.75;;;5.10;99.90;;;;;;4996407;28;20743;-84
2021/03/21 04:34:25;;;;;;;6.68;6.07;;;5.10;99.90;;;;;;5030480;28;20400;-85
2021/03/21 04:36:53;;;;;;;7.13;5.93;;;5.10;99.90;;;;;;5012854;28;20748;-83
2021/03/21 04:39:25;;;;;;;6.53;5.93;;;5.10;99.90;;;;;;5030500;28;20385;-84
2021/03/21 04:42:18;;;;;;;6.88;6.18;;;5.00;99.90;;;;;;5012715;28;20437;-85
2021/03/21 04:45:23;;;;;;;8.10;6.50;;;5.10;99.90;;;;;;5013049;28;20421;-85
2021/03/21 04:48:14;;;;;;;6.20;5.70;;;5.10;99.90;;;;;;4969283;28;20477;-84
2021/03/21 04:50:40;;;;;;;6.10;5.45;;;5.20;99.90;;;;;;5027996;28;20809;-86
2021/03/21 04:53:31;;;;;;;6.47;5.88;;;5.20;99.90;;;;;;5012505;28;20444;-85
2021/03/21 04:56:01;;;;;;;6.45;5.68;;;5.20;99.90;;;;;;4983677;28;20386;-84
2021/03/21 04:58:27;;;;;;;6.85;5.80;;;5.20;99.90;;;;;;5030616;28;20890;-85
2021/03/21 05:01:01;;;;;;;6.70;5.93;;;5.20;99.90;;;;;;5012155;28;20381;-85
2021/03/21 05:03:35;;;;;;;6.75;6.15;;;5.20;99.90;;;;;;5009429;28;20391;-84
2021/03/21 05:06:06;;;;;;;6.15;5.63;;;5.20;99.90;;;;;;5010781;28;20387;-84
2021/03/21 05:08:42;;;;;;;6.75;6.15;;;5.20;99.90;;;;;;5010633;28;20419;-86
2021/03/21 05:11:08;;;;;;;6.30;5.60;;;5.30;99.90;;;;;;5010076;28;20481;-84
2021/03/21 05:13:47;;;;;;;7.03;6.07;;;5.40;99.90;;;;;;5012116;28;20488;-84
2021/03/21 05:16:42;;;;;;;6.00;5.40;;;5.40;99.90;;;;;;5012485;28;20503;-85
2021/03/21 05:19:40;;;;;;;6.75;6.05;;;5.40;99.90;;;;;;5012523;28;20501;-85
2021/03/21 05:22:19;;;;;;;6.00;5.40;;;5.40;99.90;;;;;;5009022;28;20446;-84
2021/03/21 05:25:19;;;;;;;8.10;6.40;;;5.40;99.90;;;;;;5010513;28;20379;-84
2021/03/21 05:27:54;;;;;;;6.35;5.75;;;5.40;99.90;;;;;;5009853;28;20383;-84
2021/03/21 05:30:29;;;;;;;6.47;5.70;;;5.40;99.90;;;;;;5010160;28;20410;-84
2021/03/21 05:32:55;;;;;;;6.35;5.75;;;5.50;99.90;;;;;;5012107;28;20423;-84
2021/03/21 05:35:28;;;;;;;6.28;5.68;;;5.50;99.90;;;;;;5012418;28;20468;-84
2021/03/21 05:38:02;;;;;;;7.15;5.88;;;5.50;99.90;;;;;;5029859;28;20953;-84
2021/03/21 05:40:56;;;;;;;6.80;6.18;;;5.50;99.90;;;;;;5012090;28;20385;-85
2021/03/21 05:43:59;;;;;;;6.72;5.80;;;5.50;99.90;;;;;;4992245;28;20399;-84
2021/03/21 05:47:06;;;;;;;6.72;6.13;;;5.50;99.90;;;;;;4992315;28;20387;-84
2021/03/21 05:49:53;;;;;;;6.88;6.18;;;5.50;99.90;;;;;;5010144;28;20395;-85
2021/03/21 05:52:56;;;;;;;6.40;5.80;;;5.50;99.90;;;;;;5011949;28;20401;-85
2021/03/21 05:55:42;;;;;;;6.32;5.60;;;5.60;99.90;;;;;;5011868;28;20469;-84
2021/03/21 05:58:46;;;;;;;7.43;5.95;;;5.60;99.90;;;;;;5029591;28;20895;-83
2021/03/21 06:01:32;;;;;;;6.22;5.63;;;5.60;99.90;;;;;;5011774;28;20385;-85
2021/03/21 06:04:11;;;;;;;6.38;5.78;;;5.70;99.90;;;;;;5012221;28;20401;-84
2021/03/21 06:07:21;;;;;;;6.65;6.05;;;5.70;99.90;;;;;;5012170;28;20516;-85
2021/03/21 06:10:08;;;;;;;6.60;6.00;;;5.80;99.90;;;;;;4989106;28;20409;-85
2021/03/21 06:13:10;;;;;;;6.35;5.75;;;5.80;99.90;;;;;;5030633;28;20887;-85
2021/03/21 06:16:16;;;;;;;7.20;6.50;;;5.80;99.90;;;;;;5014788;28;20954;-85
2021/03/21 06:19:01;;;;;;;6.90;6.20;;;5.80;99.90;;;;;;5015210;28;20382;-84
2021/03/21 06:21:39;;;;;;;7.20;6.50;;;5.80;99.90;;;;;;5015217;28;20396;-84
2021/03/21 06:24:07;;;;;;;7.60;6.80;;;5.80;99.90;;;;;;5032986;28;20910;-84
2021/03/21 06:26:39;;;;;;;7.73;6.07;;;5.80;99.90;;;;;;5032980;28;21005;-85
2021/03/21 06:29:30;;;;;;;5.97;5.45;;;5.90;99.90;;;;;;5033167;28;20389;-85
2021/03/21 06:32:15;;;;;;;6.72;6.13;;;5.90;99.90;;;;;;5014982;28;20428;-84
2021/03/21 06:35:24;;;;;;;7.20;6.50;;;6.00;99.90;;;;;;5032785;28;20373;-85
2021/03/21 06:38:04;;;;;;;7.50;6.80;;;6.00;99.90;;;;;;4954027;28;20385;-84
2021/03/21 06:40:41;;;;;;;8.13;6.70;;;6.00;99.90;;;;;;5011480;28;20952;-86
2021/03/21 06:43:35;;;;;;;6.50;5.72;;;6.00;99.90;;;;;;5012505;28;20799;-85
2021/03/21 06:46:37;;;;;;;6.50;5.88;;;6.00;99.90;;;;;;5014920;28;20393;-85
2021/03/21 06:49:33;;;;;;;6.33;5.73;;;6.00;99.90;;;;;;5014935;28;20397;-84
2021/03/21 06:52:05;;;;;;;6.10;5.43;;;6.10;99.90;;;;;;5032452;28;20385;-85
2021/03/21 06:55:00;;;;;;;6.32;5.25;;;6.20;99.90;;;;;;5032495;28;20405;-85
2021/03/21 06:57:56;;;;;;;5.55;5.05;;;6.20;99.90;;;;;;5013939;28;20496;-85
2021/03/21 07:00:31;;;;;;;6.33;5.30;;;6.20;99.90;;;;;;5014417;28;20397;-85
2021/03/21 07:03:15;;;;;;;5.60;5.10;;;6.20;99.90;;;;;;5011229;28;20376;-85
2021/03/21 07:06:00;;;;;;;5.10;4.60;;;6.20;99.90;;;;;;5012464;28;20381;-84
2021/03/21 07:09:03;;;;;;;5.95;5.35;;;6.10;99.90;;;;;;5011142;28;20866;-85
2021/03/21 07:12:06;;;;;;;5.63;5.05;;;6.10;99.90;;;;;;5012403;28;20486;-85
2021/03/21 07:14:47;;;;;;;5.90;5.30;;;6.10;99.90;;;;;;4994809;28;20478;-85
2021/03/21 07:17:43;;;;;;;5.88;5.28;;;6.10;99.90;;;;;;5012302;28;20750;-85
2021/03/21 07:20:55;;;;;;;5.57;4.97;;;6.10;99.90;;;;;;5012246;28;20877;-84
2021/03/21 07:23:46;;;;;;;5.93;5.32;;;6.20;99.90;;;;;;4963021;28;20403;-84
2021/03/21 07:26:45;;;;;;;5.73;5.13;;;6.30;99.90;;;;;;5011835;28;20757;-84
2021/03/21 07:29:25;;;;;;;4.75;4.35;;;6.40;99.90;;;;;;4996675;28;20409;-85
2021/03/21 07:31:55;;;;;;;4.88;4.43;;;6.40;99.90;;;;;;4994215;28;20478;-85
2021/03/21 07:35:07;;;;;;;5.00;4.07;;;6.40;99.90;;;;;;5011855;28;20893;-84
2021/03/21 07:38:13;;;;;;;4.53;3.88;;;6.50;99.90;;;;;;5011797;28;20383;-85
2021/03/21 07:40:50;;;;;;;4.85;3.83;;;6.50;99.90;;;;;;4954145;28;20391;-85
2021/03/21 07:43:52;;;;;;;4.60;4.20;;;6.50;99.90;;;;;;5003611;28;20407;-85
2021/03/21 07:46:35;;;;;;;3.78;3.42;;;6.60;99.90;;;;;;5026312;28;20444;-85
2021/03/21 07:49:42;;;;;;;4.07;3.67;;;6.60;99.90;;;;;;5013578;28;20759;-85
2021/03/21 07:52:30;;;;;;;3.97;3.47;;;6.50;99.90;;;;;;4934813;29;20874;-86
2021/03/21 07:55:11;;;;;;;3.50;2.70;;;6.60;99.90;;;;;;4951264;29;20434;-85
2021/03/21 07:57:47;;;;;;;4.45;3.13;;;6.50;99.90;;;;;;5009535;28;20867;-85
2021/03/21 08:00:14;;;;;;;5.25;3.15;;;6.60;99.90;;;;;;5031109;28;20382;-85
2021/03/21 08:02:39;;;;;;;5.47;3.15;;;6.60;99.90;;;;;;5030938;28;20875;-85
2021/03/21 08:05:16;;;;;;;6.13;3.35;;;6.60;99.90;;;;;;5031170;28;20376;-85
2021/03/21 08:07:44;;;;;;;6.80;3.38;;;6.50;99.90;;;;;;5013343;28;20393;-85
2021/03/21 08:10:25;;;;;;;6.20;3.40;;;6.50;99.90;;;;;;5031011;28;20388;-86
2021/03/21 08:13:01;;;;;;;6.95;3.70;;;6.40;99.90;;;;;;5030583;28;20891;-85
2021/03/21 08:15:32;;;;;;;7.90;3.80;;;6.60;99.90;;;;;;5030988;28;20377;-86
2021/03/21 08:18:02;;;;;;;11.52;4.40;;;6.60;99.90;;;;;;5030782;28;20436;-87
2021/03/21 08:20:58;;;;;;;9.85;4.25;;;6.70;99.90;;;;;;5030964;28;20393;-85
2021/03/21 08:23:35;;;;;;;11.80;4.65;;;6.60;99.90;;;;;;5013090;28;20903;-84
2021/03/21 08:26:07;;;;;;;10.98;4.10;;;6.80;99.90;;;;;;5030679;28;20494;-85
2021/03/21 08:28:38;;;;;;;13.43;4.85;;;6.80;99.90;;;;;;5012916;28;20420;-85
2021/03/21 08:31:11;;;;;;;13.55;4.47;;;6.80;99.90;;;;;;5030708;28;20389;-85
2021/03/21 08:33:42;;;;;;;14.77;4.70;;;6.80;99.90;;;;;;5030631;28;20453;-86
2021/03/21 08:36:19;;;;;;;9.37;4.27;;;6.80;99.90;;;;;;5030298;28;20411;-85
2021/03/21 08:39:06;;;;;;;15.00;4.97;;;6.70;99.90;;;;;;5030696;28;20880;-85
2021/03/21 08:41:46;;;;;;;14.07;4.78;;;7.10;99.90;;;;;;5012841;28;20942;-86
2021/03/21 08:44:42;;;;;;;16.27;5.00;;;7.40;99.90;;;;;;5030328;28;20495;-84
2021/03/21 08:47:20;;;;;;;15.23;4.70;;;7.40;99.90;;;;;;5012910;28;20472;-84
2021/03/21 08:49:50;;;;;;;13.10;4.50;;;7.60;99.90;;;;;;5012880;28;20404;-84
2021/03/21 08:52:41;;;;;;;16.70;4.88;;;7.70;99.90;;;;;;5012237;28;20432;-85
2021/03/21 08:55:26;;;;;;;16.50;4.90;;;7.50;99.90;;;;;;5032322;28;20413;-84
2021/03/21 08:57:51;;;;;;;16.03;4.87;;;7.50;99.90;;;;;;5012979;28;20857;-84
2021/03/21 09:00:34;;;;;;;15.00;5.03;;;7.40;99.90;;;;;;5014147;28;20872;-86
2021/03/21 09:03:15;;;;;;;17.20;4.60;;;7.30;99.90;;;;;;4995235;28;20383;-83
2021/03/21 09:05:52;;;;;;;12.77;3.97;;;7.20;99.90;;;;;;5030010;28;20393;-82
2021/03/21 09:08:23;;;;;;;15.00;4.30;;;7.20;99.90;;;;;;5031195;28;20385;-85
2021/03/21 09:11:01;;;;;;;18.02;5.57;;;7.20;99.90;;;;;;5032036;28;20405;-82
2021/03/21 09:13:35;;;;;;;20.90;5.43;;;7.20;99.90;;;;;;5012664;28;20409;-81
2021/03/21 09:16:12;;;;;;;20.13;5.43;;;7.20;99.90;;;;;;5013098;28;20427;-83
2021/03/21 09:18:40;;;;;;;16.10;5.15;;;7.40;99.90;;;;;;5011843;28;20404;-84
2021/03/21 09:21:25;;;;;;;17.52;4.95;;;7.40;99.90;;;;;;5012018;28;20906;-85
2021/03/21 09:24:00;;;;;;;19.33;5.75;;;7.50;99.90;;;;;;5019932;28;20397;-84
2021/03/21 09:26:34;;;;;;;20.70;5.50;;;7.70;99.90;;;;;;5034683;28;20498;-87
2021/03/21 09:29:08;;;;;;;21.02;5.75;;;7.70;99.90;;;;;;5012591;28;20491;-84
2021/03/21 09:31:34;;;;;;;22.60;5.90;;;7.60;99.90;;;;;;5017088;28;20397;-83
2021/03/21 09:34:06;;;;;;;18.58;5.80;;;7.80;99.90;;;;;;5029188;28;20409;-84
2021/03/21 09:36:43;;;;;;;22.52;6.28;;;7.40;99.90;;;;;;5028059;28;20922;-85
2021/03/21 09:39:22;;;;;;;20.10;5.63;;;7.20;99.90;;;;;;5011245;28;20396;-84
2021/03/21 09:41:49;;;;;;;24.23;6.45;;;7.00;99.90;;;;;;5029333;28;20393;-82
2021/03/21 09:44:36;;;;;;;22.33;6.57;;;6.80;99.90;;;;;;5029029;28;20397;-82
2021/03/21 09:47:20;;;;;;;24.10;6.40;;;6.90;99.90;;;;;;5012759;28;20392;-83
2021/03/21 09:49:48;;;;;;;22.10;6.63;;;7.00;99.90;;;;;;5033705;28;20401;-80
2021/03/21 09:52:27;;;;;;;21.92;5.57;;;7.10;99.90;;;;;;5033543;28;20378;-81
2021/03/21 09:55:18;;;;;;;20.52;5.57;;;7.10;99.90;;;;;;5033097;28;20890;-81
2021/03/21 09:58:09;;;;;;;17.55;5.05;;;7.20;99.90;;;;;;5015500;28;20389;-82
2021/03/21 10:00:42;;;;;;;19.15;5.28;;;7.20;99.90;;;;;;5033228;28;20451;-81
2021/03/21 10:03:11;;;;;;;19.65;5.82;;;7.20;99.90;;;;;;5015331;28;20413;-81
2021/03/21 10:05:47;;;;;;;18.20;4.95;;;7.10;99.90;;;;;;5033127;28;20377;-80
2021/03/21 10:08:42;;;;;;;18.60;5.25;;;7.00;99.90;;;;;;5015205;28;20400;-80
2021/03/21 10:11:12;;;;;;;19.30;5.93;;;7.00;99.90;;;;;;5032985;28;20388;-80
2021/03/21 10:13:39;;;;;;;18.85;5.20;;;6.90;99.90;;;;;;5015159;28;20807;-82
2021/03/21 10:16:09;;;;;;;18.20;4.95;;;7.30;99.90;;;;;;5032948;28;20465;-84
2021/03/21 10:18:43;;;;;;;16.08;4.97;;;7.40;99.90;;;;;;5015431;28;20384;-82
2021/03/21 10:21:13;;;;;;;17.25;4.97;;;7.50;99.90;;;;;;5033329;28;20374;-80
2021/03/21 10:23:47;;;;;;;23.38;5.95;;;7.70;99.90;;;;;;5032786;28;20385;-79
2021/03/21 10:26:14;;;;;;;18.98;5.90;;;7.80;99.90;;;;;;5032837;28;20420;-81
2021/03/21 10:28:52;;;;;;;20.30;5.53;;;7.70;99.90;;;;;;5032886;28;20477;-80
2021/03/21 10:31:24;;;;;;;21.27;5.93;;;7.70;99.90;;;;;;5030993;28;20389;-80
2021/03/21 10:34:03;;;;;;;17.95;5.40;;;7.70;99.90;;;;;;5032636;28;20978;-80
2021/03/21 10:36:38;;;;;;;20.05;5.53;;;7.70;99.90;;;;;;5032804;28;20461;-80
2021/03/21 10:39:29;;;;;;;22.65;6.20;;;7.70;99.90;;;;;;5032799;28;20374;-80
2021/03/21 10:42:04;;;;;;;22.85;6.53;;;7.60;99.90;;;;;;5032011;28;20753;-80
2021/03/21 10:44:30;;;;;;;22.88;6.20;;;7.40;99.90;;;;;;5014577;28;20820;-80
2021/03/21 10:46:56;;;;;;;16.92;5.93;;;7.20;99.90;;;;;;5014726;28;20852;-81
2021/03/21 10:49:46;;;;;;;20.40;6.45;;;7.00;99.90;;;;;;5032567;28;20374;-80
2021/03/21 10:52:40;;;;;;;24.33;6.18;;;7.00;99.90;;;;;;5031815;28;20369;-80
2021/03/21 10:55:26;;;;;;;23.65;6.82;;;7.10;99.90;;;;;;5040457;28;20424;-80
2021/03/21 10:57:53;;;;;;;24.33;6.95;;;7.10;99.90;;;;;;5024135;28;20395;-80
2021/03/21 11:00:32;;;;;;;22.60;7.15;;;7.20;99.90;;;;;;5041303;28;20398;-80
2021/03/21 11:03:00;;;;;;;26.63;7.32;;;7.10;99.90;;;;;;5036211;28;20748;-81
2021/03/21 11:05:29;;;;;;;23.38;6.90;;;;;;;;;;5042113;28;20389;-80
2021/03/21 11:08:13;;;;;;;24.13;7.47;;;7.10;99.90;;;;;;5033817;28;20450;-80
2021/03/21 11:10:44;;;;;;;25.92;7.95;;;7.20;99.90;;;;;;5036565;28;20392;-80
2021/03/21 11:13:24;;;;;;;29.90;8.73;;;7.20;99.90;;;;;;5019632;28;20955;-81
2021/03/21 11:15:51;;;;;;;29.50;8.75;;;7.20;99.90;;;;;;5035092;28;20403;-80
2021/03/21 11:18:25;;;;;;;27.85;8.23;;;7.20;99.90;;;;;;5040915;28;20374;-80
2021/03/21 11:21:10;;;;;;;30.27;8.20;;;7.00;99.90;;;;;;5020162;28;20901;-79
2021/03/21 11:23:46;;;;;;;29.50;9.13;;;;;;;;;;5038371;28;20385;-80
2021/03/21 11:26:38;;;;;;;31.25;8.50;;;;;;;;;;5036855;28;20401;-80
2021/03/21 11:29:04;;;;;;;32.97;10.47;;;;;;;;;;5017547;28;20391;-79
2021/03/21 11:31:32;;;;;;;27.23;8.33;;;;;;;;;;5037732;28;20397;-80
2021/03/21 11:33:59;;;;;;;30.67;8.93;;;;;;;;;;5017928;28;20798;-80
2021/03/21 11:36:27;;;;;;;29.80;9.17;;;;;;;;;;5038883;28;20370;-80
2021/03/21 11:38:55;;;;;;;31.13;8.05;;;;;;;;;;5032060;28;20940;-80
2021/03/21 11:41:34;;;;;;;30.23;8.63;;;;;;;;;;5040791;28;20385;-79
2021/03/21 11:44:29;;;;;;;31.05;9.45;;;;;;;;;;5019645;28;20877;-80
2021/03/21 11:46:57;;;;;;;31.65;8.45;;;;;;;;;;5019251;28;20387;-81
2021/03/21 11:49:25;;;;;;;26.63;8.05;;;;;;;;;;5023619;28;20870;-79
2021/03/21 11:51:59;;;;;;;26.55;7.57;;;;;;;;;;5036783;28;20442;-81
2021/03/21 11:54:28;;;;;;;26.00;7.77;;;;;;;;;;5030651;28;21029;-80
2021/03/21 11:56:54;;;;;;;26.67;8.10;;;;;;;;;;5034625;28;20447;-80
2021/03/21 11:59:23;;;;;;;29.33;8.27;;;;;;;;;;5032798;28;20384;-80
2021/03/21 12:01:53;;;;;;;28.05;8.18;;;;;;;;;;5034403;28;20954;-79
2021/03/21 12:04:39;;;;;;;26.20;7.53;;;;;;;;;;5035875;28;20868;-79
2021/03/21 12:07:06;;;;;;;26.60;7.50;;;;;;;;;;5036935;28;20397;-78
2021/03/21 12:09:47;;;;;;;22.45;6.70;;;;;;;;;;5033699;28;20479;-84
2021/03/21 12:12:32;;;;;;;25.00;7.70;;;;;;;;;;5035213;28;20875;-78
2021/03/21 12:14:58;;;;;;;22.98;7.28;;;9.40;99.90;;;;;;5033203;28;20432;-82
2021/03/21 12:17:24;;;;;;;25.63;7.40;;;9.40;99.90;;;;;;5034265;28;20403;-80
2021/03/21 12:19:53;;;;;;;22.67;6.37;;;9.40;99.90;;;;;;5016987;28;20458;-80
2021/03/21 12:22:41;;;;;;;25.85;7.55;;;9.70;99.90;;;;;;5037460;28;20478;-85
2021/03/21 12:25:36;;;;;;;20.60;6.47;;;9.70;99.90;;;;;;4997216;28;20897;-80
2021/03/21 12:28:21;;;;;;;20.85;6.57;;;9.30;99.90;;;;;;4999807;28;20389;-81
2021/03/21 12:31:03;;;;;;;20.80;6.45;;;9.10;99.90;;;;;;5015570;28;20390;-83
2021/03/21 12:33:35;;;;;;;23.30;6.68;;;9.00;99.90;;;;;;4980295;28;20464;-82
2021/03/21 12:36:03;;;;;;;21.00;6.47;;;8.90;99.90;;;;;;5015878;28;20393;-83
2021/03/21 12:38:34;;;;;;;23.55;6.47;;;8.90;99.90;;;;;;5015472;28;20383;-77
2021/03/21 12:41:21;;;;;;;19.40;5.70;;;8.90;99.90;;;;;;5013492;28;20408;-83
2021/03/21 12:44:19;;;;;;;18.30;5.93;;;9.40;99.90;;;;;;4992254;28;20472;-80
2021/03/21 12:46:48;;;;;;;19.20;6.35;;;9.70;99.90;;;;;;4992019;28;20400;-81
2021/03/21 12:49:37;;;;;;;18.08;5.60;;;9.70;99.90;;;;;;5010833;28;20387;-81
2021/03/21 12:52:09;;;;;;;18.95;6.40;;;9.60;99.90;;;;;;5010058;28;20399;-80
2021/03/21 12:54:36;;;;;;;18.27;6.15;;;9.60;99.90;;;;;;5011144;28;20414;-83
2021/03/21 12:57:02;;;;;;;14.67;5.63;;;9.60;99.90;;;;;;4997765;28;20399;-85
2021/03/21 12:59:27;;;;;;;16.65;5.18;;;9.70;99.90;;;;;;5017458;28;20921;-82
2021/03/21 13:01:53;;;;;;;16.13;5.33;;;9.70;99.90;;;;;;5014863;28;20395;-79
2021/03/21 13:04:19;;;;;;;15.33;5.10;;;9.50;99.90;;;;;;5015589;28;20708;-81
2021/03/21 13:06:45;;;;;;;15.30;5.20;;;9.40;99.90;;;;;;5016920;28;20431;-80
2021/03/21 13:09:11;;;;;;;17.90;5.60;;;9.50;99.90;;;;;;5012275;28;20396;-81
2021/03/21 13:11:38;;;;;;;14.75;4.75;;;9.50;99.90;;;;;;5016581;28;20389;-83
2021/03/21 13:14:05;;;;;;;15.30;5.10;;;9.70;99.90;;;;;;4996269;28;20417;-83
2021/03/21 13:16:31;;;;;;;12.17;4.23;;;10.20;99.90;;;;;;4993886;28;20491;-80
2021/03/21 13:18:56;;;;;;;14.07;4.47;;;10.70;99.90;;;;;;5016220;28;20381;-79
2021/03/21 13:21:23;;;;;;;16.13;4.40;;;10.70;99.90;;;;;;4998317;28;20381;-80
2021/03/21 13:23:49;;;;;;;14.07;4.00;;;10.70;99.90;;;;;;5020562;28;20391;-81
2021/03/21 13:26:14;;;;;;;14.27;4.47;;;10.30;99.90;;;;;;5000571;28;20377;-81
2021/03/21 13:28:40;;;;;;;13.83;4.53;;;10.10;99.90;;;;;;5020284;28;20390;-80
2021/03/21 13:31:06;;;;;;;15.00;4.60;;;9.90;99.90;;;;;;4999937;28;20395;-81
2021/03/21 13:33:32;;;;;;;14.30;4.00;;;10.10;99.90;;;;;;5019186;28;20454;-79
2021/03/21 13:36:00;;;;;;;16.33;4.35;;;10.30;99.90;;;;;;5020061;28;20369;-81
2021/03/21 13:38:27;;;;;;;10.23;3.55;;;10.50;99.90;;;;;;4996660;28;20732;-80
2021/03/21 13:40:54;;;;;;;11.90;4.13;;;10.50;99.90;;;;;;5019466;28;20371;-77
2021/03/21 13:43:21;;;;;;;12.98;3.65;;;10.60;99.90;;;;;;5020228;28;20383;-80
2021/03/21 13:45:49;;;;;;;10.00;3.67;;;10.30;99.90;;;;;;5020548;28;20387;-81